x

Santa Monica Basin - 33nm Wsw Of Santa Monica, Ca (46025) Wave Buoy

9:50pm - Mon 23rd Oct 2017 All times are PDT. -7 hours from GMT.

  • Sig Wave height 4.3ft
  • Swell Direction
  • Peak Period 12s
  • Average Period 7s
  • Wind
    13mph, 16mph gusts
  • Sea Temp 67°f
  • Sea Pressure 1016mb
  • Santa Monica Basin - 33nm Wsw Of Santa Monica, Ca
  • Santa Monica Basin - 33nm Wsw Of Santa Monica, Ca

More Historic Weather Station data

Upgrade to MSW Pro to gain access to the past 30 days of data for over 8000 Wavebouys and Weather Stations around the globe.

Join

Comparision Forecast

View Surf forecast
   
Mon 10/23 9:50pm 4.5ft 12s 7s 13 16 mph 1016mb 67f
9:40pm 4.5ft  -  7s 13 16 mph 1015.9mb 67f
9:30pm  -   -   -  13 16 mph 1015.9mb -
9:20pm  -   -   -  13 16 mph 1016mb 68f
9:10pm  -   -   -  13 16 mph 1015.9mb 68f
9:00pm  -   -   -  13 16 mph 1015.9mb 68f
8:50pm 4.5ft 10s 8s 11 16 mph 1015.8mb 68f
8:40pm  -   -   -  7 9 mph 1015.8mb 68f
8:30pm  -   -   -  4 7 mph 1015.9mb 68f
8:20pm  -   -   -  7 7 mph 1015.8mb 68f
8:10pm  -   -   -  7 7 mph 1015.8mb 68f
8:00pm  -   -   -  7 9 mph 1015.8mb 68f
7:50pm 4.5ft 16s 8s 7 9 mph 1015.8mb 68f
7:40pm 4.5ft  -  8s 7 9 mph 1015.8mb 68f
7:30pm  -   -   -  7 9 mph 1015.9mb 68f
7:20pm  -   -   -  7 9 mph 1015.8mb 68f
7:10pm  -   -   -  9 9 mph 1015.7mb 68f
7:00pm  -   -   -  9 11 mph 1015.7mb 68f
6:50pm 4ft 16s 8s 9 11 mph 1015.6mb 68f
6:40pm 4ft  -  8s 7 9 mph 1015.6mb 68f
6:30pm  -   -   -  7 9 mph 1015.5mb 68f
6:20pm  -   -   -  7 9 mph 1015.5mb 68f
6:10pm  -   -   -  7 9 mph 1015.5mb 68f
6:00pm  -   -   -  9 9 mph 1015.5mb -
5:50pm 4ft 16s 8s 9 9 mph 1015.4mb 67f
5:40pm  -   -   -  7 9 mph 1015.4mb -
5:30pm  -   -   -  7 9 mph 1015.4mb 68f
5:20pm  -   -   -  4 7 mph 1015.5mb 68f
5:10pm  -   -   -  7 9 mph 1015.6mb 68f
5:00pm  -   -   -  7 9 mph 1015.6mb 68f
4:50pm 4ft 16s 8s 7 7 mph 1015.5mb 69f
4:40pm 4ft  -  8s 7 9 mph 1015.5mb 68f
4:30pm  -   -   -  7 9 mph 1015.5mb 68f
4:20pm  -   -   -  7 7 mph 1015.4mb 68f
4:10pm  -   -   -  7 9 mph 1015.4mb 69f
4:00pm  -   -   -  7 7 mph 1015.5mb 69f
3:50pm 3.5ft 16s 8s 4 7 mph 1015.5mb 68f
3:40pm  -   -   -  4 7 mph 1015.5mb 68f
3:30pm  -   -   -  7 7 mph 1015.6mb -
3:20pm  -   -   -  7 7 mph 1015.6mb 69f
3:10pm  -   -   -  7 9 mph 1015.7mb 68f
3:00pm  -   -   -  7 9 mph 1015.7mb 68f
2:50pm 4ft 17s 9s 7 9 mph 1015.8mb 68f
2:40pm 4ft  -  9s 7 9 mph 1015.9mb 68f
2:30pm  -   -   -  9 9 mph 1015.9mb 68f
2:20pm  -   -   -  9 9 mph 1015.9mb 68f
2:10pm  -   -   -  9 9 mph 1016mb 68f
2:00pm  -   -   -  7 9 mph 1016.1mb 68f
1:50pm 3.5ft 13s 8s 7 7 mph 1016.2mb 68f
1:40pm 3.5ft  -  8s 7 7 mph 1016.3mb 69f
1:30pm  -   -   -  4 7 mph 1016.4mb 69f
1:20pm  -   -   -  4 7 mph 1016.6mb 68f
1:10pm  -   -   -  4 7 mph 1016.8mb 68f
1:00pm  -   -   -  4 7 mph 1017mb 68f
12:50pm 4.5ft 13s 8s 4 7 mph 1017.2mb 68f
12:40pm  -   -   -  4 7 mph 1017.3mb 68f
12:30pm  -   -   -  4 7 mph 1017.5mb 68f
12:20pm  -   -   -  4 7 mph 1017.6mb 68f
12:10pm  -   -   -  4 7 mph 1017.8mb 68f
12:00pm  -   -   -  4 7 mph 1017.8mb 68f
11:50am 4ft 16s 7s 4 7 mph 1017.8mb 68f
11:40am  -   -   -  4 7 mph 1017.9mb 68f
11:30am  -   -   -  4 4 mph 1018mb 68f
11:20am  -   -   -  4 7 mph 1018mb 68f
11:10am  -   -   -  4 7 mph 1018mb 68f
11:00am  -   -   -  4 7 mph 1018.1mb 68f
10:50am 4.5ft 16s 7s 4 7 mph 1018.1mb 68f
10:40am 4.5ft  -  7s 4 4 mph 1018.2mb 68f
10:30am  -   -   -  4 4 mph 1018.2mb 68f
10:20am  -   -   -  4 4 mph 1018.2mb 68f
10:10am  -   -   -  4 4 mph 1018.2mb 68f
10:00am  -   -   -  2 4 mph 1018.2mb 68f
9:50am 4.5ft 17s 6s 2 2 mph 1018.1mb 68f
9:40am 4.5ft  -  6s  -  2 mph 1018.1mb 68f
9:30am  -   -   -   -  2 mph 1018.2mb -
9:20am  -   -   -  2 2 mph 1018.2mb 68f
9:10am  -   -   -   -  2 mph 1018.2mb 68f
9:00am  -   -   -   -  2 mph 1018.2mb 68f
8:50am 4ft 17s 7s  -  2 mph 1018.1mb 68f
8:40am  -   -   -  2 4 mph 1018.1mb 68f
8:30am  -   -   -  2 4 mph 1018mb 68f
8:20am  -   -   -  2 4 mph 1017.8mb 68f
8:10am  -   -   -  2 4 mph 1017.6mb 68f
8:00am  -   -   -  2 4 mph 1017.5mb 68f
7:50am 4ft 17s 7s 2 2 mph 1017.3mb 68f
7:40am 4ft  -  7s 2 4 mph 1017.2mb 68f
7:30am  -   -   -  4 4 mph 1017.1mb 68f
7:20am  -   -   -  4 4 mph 1017mb 68f
7:10am  -   -   -  2 4 mph 1016.9mb -
7:00am  -   -   -  2 4 mph 1016.7mb 68f
6:50am 3.5ft 16s 7s 2 4 mph 1016.7mb 68f
6:40am  -   -   -  2 4 mph 1016.6mb 68f
6:30am  -   -   -  2 7 mph 1016.7mb 68f
6:20am  -   -   -   -  2 mph 1016.6mb 68f
6:10am  -   -   -   -  2 mph 1016.6mb 68f
6:00am  -   -   -   -  2 mph 1016.6mb -
5:50am 3.5ft 17s 7s 2 2 mph 1016.5mb 68f
5:40am 3.5ft  -  7s 2 4 mph 1016.6mb 68f
5:30am  -   -   -  2 4 mph 1016.6mb 68f
5:20am  -   -   -  2 4 mph 1016.6mb 68f
5:10am  -   -   -  2 2 mph 1016.6mb 68f
5:00am  -   -   -  2 2 mph 1016.5mb -
4:50am 3.5ft 17s 7s  -  2 mph 1016.5mb 68f
4:40am 3.5ft  -  7s 2 2 mph 1016.5mb 68f
4:30am  -   -   -  2 4 mph 1016.5mb 68f
4:20am  -   -   -  4 4 mph 1016.4mb 68f
4:10am  -   -   -  4 7 mph 1016.4mb 68f
4:00am  -   -   -  7 7 mph 1016.4mb 68f
3:50am 3.5ft 17s 7s 4 7 mph 1016.5mb 68f
3:40am 3.5ft  -  7s 4 7 mph 1016.5mb 68f
3:30am  -   -   -  4 7 mph 1016.5mb 68f
3:20am  -   -   -  7 9 mph 1016.5mb 68f
3:10am  -   -   -  7 9 mph 1016.7mb 68f
3:00am  -   -   -  7 9 mph 1016.8mb 68f
2:50am 3.5ft 17s 8s 9 9 mph 1017mb 68f
2:40am 3.5ft  -  8s 7 9 mph 1017mb -
2:30am  -   -   -  7 9 mph 1017mb 68f
2:20am  -   -   -  7 9 mph 1017mb 68f
2:10am  -   -   -  7 9 mph 1017.1mb 68f
2:00am  -   -   -  7 9 mph 1017.1mb 68f
1:50am 3ft 17s 7s 7 9 mph 1017.1mb 68f
1:40am 3ft  -  7s 7 9 mph 1017.2mb 68f
1:30am  -   -   -  7 7 mph 1017.2mb 68f
1:20am  -   -   -  4 4 mph 1017.2mb 68f
1:10am  -   -   -  4 7 mph 1017.3mb 68f
1:00am  -   -   -  7 7 mph 1017.3mb 68f
12:50am 3ft 17s 7s 4 7 mph 1017.3mb -
12:40am 3ft  -  7s 7 7 mph 1017.3mb 68f
12:30am  -   -   -  7 9 mph 1017.2mb 68f
12:20am  -   -   -  7 9 mph 1017.3mb 68f
12:10am  -   -   -  7 9 mph 1017.2mb 68f
12:00am  -   -   -  7 9 mph 1017.1mb 68f
Sun 10/22 11:50pm 3ft 17s 6s 7 9 mph 1017.2mb 68f
11:40pm 3ft  -  6s 9 11 mph 1017.2mb 68f
11:30pm  -   -   -  9 11 mph 1017.2mb -
11:20pm  -   -   -  9 11 mph 1017.3mb 68f
11:10pm  -   -   -  9 13 mph 1017.2mb 68f
11:00pm  -   -   -  11 13 mph 1017.2mb 68f
10:50pm 3.5ft 17s 6s 11 13 mph 1017.2mb 68f
10:40pm 3.5ft  -  6s 9 13 mph 1017.3mb 68f
10:30pm  -   -   -  11 11 mph 1017.3mb 68f
10:20pm  -   -   -  11 13 mph 1017.3mb 68f
10:10pm  -   -   -  11 13 mph 1017.3mb 68f
10:00pm  -   -   -  9 11 mph 1017.3mb 68f
9:50pm 3.5ft 17s 7s 11 11 mph 1017.3mb 68f
9:40pm  -   -   -  9 13 mph 1017.4mb 68f
9:30pm  -   -   -  11 13 mph 1017.5mb -
9:20pm  -   -   -  9 11 mph 1017.5mb 68f
9:10pm  -   -   -  11 11 mph 1017.4mb 68f
9:00pm  -   -   -  11 13 mph 1017.4mb 68f
8:50pm 3.5ft 17s 7s 11 13 mph 1017.4mb 68f
8:40pm 3.5ft  -  7s 11 13 mph 1017.4mb 68f
8:30pm  -   -   -  9 13 mph 1017.5mb -
8:20pm  -   -   -  7 9 mph 1017.5mb 68f
8:10pm  -   -   -  7 9 mph 1017.6mb -
8:00pm  -   -   -  7 9 mph 1017.5mb 68f
7:50pm 3.5ft 17s 7s 7 9 mph 1017.6mb 68f
7:40pm 3.5ft  -  7s 7 9 mph 1017.6mb 68f
7:30pm  -   -   -  9 9 mph 1017.6mb 68f
7:20pm  -   -   -  7 9 mph 1017.5mb 68f
7:10pm  -   -   -  7 9 mph 1017.6mb -
7:00pm  -   -   -  9 9 mph 1017.5mb 68f
6:50pm 3ft 12s 7s 9 9 mph 1017.4mb 68f
6:40pm 3ft  -  7s 9 11 mph 1017.5mb 68f
6:30pm  -   -   -  7 9 mph 1017.4mb 68f
6:20pm  -   -   -  9 9 mph 1017.4mb 68f
6:10pm  -   -   -  7 9 mph 1017.4mb 68f
6:00pm  -   -   -  7 9 mph 1017.6mb -
5:50pm 3ft 13s 7s 7 9 mph 1017.6mb 69f
5:40pm 3ft  -  7s 9 9 mph 1017.6mb 69f
5:30pm  -   -   -  9 11 mph 1017.6mb 69f
5:20pm  -   -   -  9 11 mph 1017.6mb 68f
5:10pm  -   -   -  9 11 mph 1017.6mb 69f
5:00pm  -   -   -  9 11 mph 1017.6mb 69f
4:50pm 3ft 17s 7s 7 9 mph 1017.6mb 69f
4:40pm  -   -   -  7 7 mph 1017.7mb 69f
4:30pm  -   -   -  4 7 mph 1017.8mb 69f
4:20pm  -   -   -  4 4 mph 1017.8mb 69f
4:10pm  -   -   -  4 7 mph 1017.8mb 69f
4:00pm  -   -   -  4 7 mph 1017.9mb 69f
3:50pm 3.5ft 19s 7s 4 7 mph 1017.9mb 69f
3:40pm 3.5ft  -  7s 4 7 mph 1018mb 69f
3:30pm  -   -   -  7 7 mph 1018.1mb -
3:20pm  -   -   -  7 9 mph 1018mb 69f
3:10pm  -   -   -  4 7 mph 1018mb 68f
3:00pm  -   -   -  4 7 mph 1018.1mb 69f
2:50pm 3.5ft 19s 6s 4 7 mph 1018mb 69f
2:40pm  -   -   -  4 7 mph 1018.1mb 69f
2:30pm  -   -   -  4 4 mph 1018mb -
2:20pm  -   -   -  4 4 mph 1018.1mb 69f
2:10pm  -   -   -  4 7 mph 1018.1mb 68f
2:00pm  -   -   -  4 7 mph 1018.3mb 68f
1:50pm 3.5ft 12s 6s 4 7 mph 1018.3mb 68f
1:40pm 3.5ft  -  6s 4 7 mph 1018.4mb 68f
1:30pm  -   -   -  4 7 mph 1018.4mb 68f
1:20pm  -   -   -  4 4 mph 1018.6mb 68f
1:10pm  -   -   -  4 7 mph 1018.8mb 68f
1:00pm  -   -   -  4 7 mph 1018.8mb 68f
12:50pm 3.5ft 13s 6s 4 4 mph 1018.9mb 68f
12:40pm  -   -   -  4 7 mph 1019mb 68f
12:30pm  -   -   -  7 7 mph 1019.2mb 68f
12:20pm  -   -   -  4 7 mph 1019.3mb 68f
12:10pm  -   -   -  4 7 mph 1019.5mb 68f
12:00pm  -   -   -  7 7 mph 1019.5mb 68f
11:50am 3.5ft 19s 6s 7 9 mph 1019.5mb 68f
11:40am  -   -   -  9 11 mph 1019.5mb 68f
11:30am  -   -   -  9 11 mph 1019.5mb 68f
11:20am  -   -   -  11 13 mph 1019.6mb 68f
11:10am  -   -   -  9 11 mph 1019.7mb 68f
11:00am  -   -   -  11 13 mph 1019.7mb 68f
10:50am 3.5ft 13s 6s 9 11 mph 1019.7mb 68f
10:40am 3.5ft  -  6s 9 11 mph 1019.7mb 68f
10:30am  -   -   -  9 9 mph 1019.8mb -
10:20am  -   -   -  9 11 mph 1019.8mb -
10:10am  -   -   -  9 11 mph 1019.8mb 68f
10:00am  -   -   -  9 11 mph 1019.8mb 68f
9:50am 3.5ft 12s 6s 9 11 mph 1019.8mb 68f
9:40am  -   -   -  11 13 mph 1019.8mb 68f
9:30am  -   -   -  11 11 mph 1019.8mb 68f
9:20am  -   -   -  11 11 mph 1019.8mb 68f
9:10am  -   -   -  9 11 mph 1019.7mb 68f
9:00am  -   -   -  9 11 mph 1019.7mb 68f
8:50am 4.5ft 11s 6s 9 11 mph 1019.7mb 68f
8:40am 4.5ft  -  6s 9 11 mph 1019.5mb 68f
8:30am  -   -   -  9 11 mph 1019.4mb 68f
8:20am  -   -   -  9 13 mph 1019.4mb 68f
8:10am  -   -   -  9 11 mph 1019.1mb 68f
8:00am  -   -   -  9 11 mph 1019mb 68f
7:50am 5ft 8s 7s 9 11 mph 1018.8mb 68f
7:40am  -   -   -  9 11 mph 1018.8mb 68f
7:30am  -   -   -  11 13 mph 1018.7mb 68f
7:20am  -   -   -  11 13 mph 1018.7mb 68f
7:10am  -   -   -  9 11 mph 1018.7mb 68f
7:00am  -   -   -  9 11 mph 1018.5mb 68f
6:50am 4.5ft 8s 6s 9 11 mph 1018.5mb 68f
6:40am 4.5ft  -  6s 9 11 mph 1018.6mb 68f
6:30am  -   -   -  7 9 mph 1018.5mb 68f
6:20am  -   -   -  7 9 mph 1018.5mb 68f
6:10am  -   -   -  7 9 mph 1018.4mb 68f
6:00am  -   -   -  7 9 mph 1018.3mb -
5:50am 4.5ft 14s 7s 7 9 mph 1018.2mb 68f
5:40am  -   -   -  7 9 mph 1018.1mb 68f
5:30am  -   -   -  9 11 mph 1018.1mb 68f
5:20am  -   -   -  7 9 mph 1018.1mb -
5:10am  -   -   -  9 11 mph 1018.1mb 68f
5:00am  -   -   -  9 11 mph 1018.1mb 68f
4:50am 4.5ft 12s 7s 9 11 mph 1018.1mb -
4:40am  -   -   -  9 11 mph 1018.1mb 68f
4:30am  -   -   -  11 13 mph 1018mb 68f
4:20am  -   -   -  9 13 mph 1017.9mb 68f
4:10am  -   -   -  11 13 mph 1017.9mb 68f
4:00am  -   -   -  11 13 mph 1017.9mb 68f
3:50am 4.5ft 9s 7s 11 13 mph 1017.9mb 68f
3:40am 4.5ft  -  7s 11 13 mph 1018mb 68f
3:30am  -   -   -  9 13 mph 1018.1mb 68f
3:20am  -   -   -  11 13 mph 1018.1mb 68f
3:10am  -   -   -  11 13 mph 1018.1mb 68f
3:00am  -   -   -  11 13 mph 1018.1mb 68f
2:50am 4.5ft 9s 6s 11 13 mph 1018.1mb 68f
2:40am 4.5ft  -  6s 13 16 mph 1018.2mb 68f
2:30am  -   -   -  13 16 mph 1018.2mb 68f
2:20am  -   -   -  11 16 mph 1018.3mb 68f
2:10am  -   -   -  11 13 mph 1018.4mb 68f
2:00am  -   -   -  11 13 mph 1018.4mb 68f
1:50am 4ft 15s 6s 11 13 mph 1018.3mb 68f
1:40am 4ft  -  6s 11 13 mph 1018.3mb 68f
1:30am  -   -   -  11 13 mph 1018.3mb 68f
1:20am  -   -   -  13 16 mph 1018.3mb 68f
1:10am  -   -   -  13 16 mph 1018.3mb -
1:00am  -   -   -  13 16 mph 1018.3mb -
12:50am 4ft 13s 6s 13 16 mph 1018.2mb 68f
12:40am  -   -   -  16 18 mph 1018.3mb 68f
12:30am  -   -   -  16 18 mph 1018.3mb 68f
12:20am  -   -   -  13 18 mph 1018.3mb -
12:10am  -   -   -  13 18 mph 1018.5mb 68f
12:00am  -   -   -  16 18 mph 1018.6mb 68f
Sat 10/21 11:50pm 4.5ft 14s 6s 16 18 mph 1018.6mb 68f
11:40pm  -   -   -  16 18 mph 1018.5mb 68f
11:30pm  -   -   -  18 20 mph 1018.6mb -
11:20pm  -   -   -  18 20 mph 1018.6mb 68f
11:10pm  -   -   -  18 22 mph 1018.5mb 68f
11:00pm  -   -   -  18 20 mph 1018.4mb 68f
10:50pm 4ft 13s 5s 18 20 mph 1018.4mb 68f
10:40pm  -   -   -  18 22 mph 1018.3mb 68f
10:30pm  -   -   -  16 20 mph 1018.4mb 68f
10:20pm  -   -   -  18 20 mph 1018.3mb 68f
10:10pm  -   -   -  18 20 mph 1018.4mb 68f
10:00pm  -   -   -  18 22 mph 1018.3mb 68f
9:50pm 4ft 14s 5s 18 22 mph 1018.3mb 68f
9:40pm 4ft  -  5s 18 20 mph 1018.3mb 68f
9:30pm  -   -   -  16 20 mph 1018.1mb -
9:20pm  -   -   -  16 20 mph 1018.1mb 68f
9:10pm  -   -   -  16 20 mph 1018mb 68f
9:00pm  -   -   -  16 18 mph 1017.8mb 68f
8:50pm 4ft 15s 5s 16 18 mph 1017.6mb 68f
8:40pm  -   -   -  16 20 mph 1017.6mb 68f
8:30pm  -   -   -  18 20 mph 1017.5mb 68f
8:20pm  -   -   -  18 22 mph 1017.5mb 68f
8:10pm  -   -   -  18 22 mph 1017.4mb -
8:00pm  -   -   -  20 25 mph 1017.4mb -
7:50pm 4ft 12s 5s 20 22 mph 1017.5mb 68f
7:40pm  -   -   -  18 22 mph 1017.4mb 68f
7:30pm  -   -   -  18 22 mph 1017.2mb 68f
7:20pm  -   -   -  18 22 mph 1017.2mb 68f
7:10pm  -   -   -  18 22 mph 1017.1mb 68f
7:00pm  -   -   -  18 20 mph 1017.1mb 68f
6:50pm 4ft 12s 5s 16 20 mph 1017mb 68f
6:40pm 4ft  -  5s 16 18 mph 1017mb 68f
6:30pm  -   -   -  16 20 mph 1016.9mb 68f
6:20pm  -   -   -  13 18 mph 1016.8mb 68f
6:10pm  -   -   -  13 18 mph 1017.1mb 68f
6:00pm  -   -   -  13 16 mph 1017mb 68f
5:50pm 4ft 16s 6s 13 16 mph 1017mb 68f
5:40pm 4ft  -  6s 13 16 mph 1016.7mb 68f
5:30pm  -   -   -  11 16 mph 1016.7mb 68f
5:20pm  -   -   -  13 16 mph 1016.8mb -
5:10pm  -   -   -  13 16 mph 1016.8mb 68f
5:00pm  -   -   -  13 18 mph 1016.7mb 68f
4:50pm 4ft 13s 6s 13 18 mph 1016.8mb 68f
4:40pm 4ft  -  6s 16 18 mph 1016.5mb 68f
4:30pm  -   -   -  11 16 mph 1016.7mb 68f
4:20pm  -   -   -  11 16 mph 1016.8mb 68f
4:10pm  -   -   -  13 16 mph 1016.7mb 68f
4:00pm  -   -   -  11 13 mph 1016.8mb 68f
3:50pm 4ft 13s 6s 11 13 mph 1017mb 68f
3:40pm 4ft  -  6s 11 13 mph 1016.9mb 68f
3:30pm  -   -   -  9 11 mph 1017mb 68f
3:20pm  -   -   -  11 13 mph 1016.9mb 68f
3:10pm  -   -   -  11 13 mph 1017mb 68f
3:00pm  -   -   -  13 16 mph 1016.9mb -
2:50pm 4.5ft 14s 6s 13 16 mph 1016.9mb 68f
2:40pm  -   -   -  11 13 mph 1016.9mb 68f
2:30pm  -   -   -  11 16 mph 1017mb 68f
2:20pm  -   -   -  11 13 mph 1017mb 68f
2:10pm  -   -   -  11 13 mph 1016.9mb 68f
2:00pm  -   -   -  11 13 mph 1016.9mb 68f
1:50pm 4ft 15s 6s 9 13 mph 1017.1mb 68f
1:40pm 4ft  -  6s 7 9 mph 1017.3mb 68f
1:30pm  -   -   -  4 7 mph 1017.3mb 68f
1:20pm  -   -   -  7 9 mph 1017.5mb 68f
1:10pm  -   -   -  7 9 mph 1017.7mb 68f
1:00pm  -   -   -  7 9 mph 1017.8mb 68f
12:50pm 4.5ft 13s 6s 7 7 mph 1017.8mb 68f
12:40pm  -   -   -  7 7 mph 1018mb 68f
12:30pm  -   -   -  4 7 mph 1018mb 68f
12:20pm  -   -   -  4 7 mph 1018.1mb 68f
12:10pm  -   -   -  7 9 mph 1018.1mb 68f
12:00pm  -   -   -  9 11 mph 1018.2mb -
11:50am 4.5ft 15s 6s 9 11 mph 1018.3mb 68f
11:40am  -   -   -  9 11 mph 1018.4mb 68f
11:30am  -   -   -  9 11 mph 1018.2mb 68f
11:20am  -   -   -  9 11 mph 1018.2mb 68f
11:10am  -   -   -  9 11 mph 1018.1mb 68f
11:00am  -   -   -  9 13 mph 1018.1mb 68f
10:50am 4.5ft 6s 6s 11 11 mph 1018.1mb 68f
10:40am 4.5ft  -  6s 9 11 mph 1018mb 68f
10:30am  -   -   -  11 13 mph 1018mb 68f
10:20am  -   -   -  11 13 mph 1018mb 68f
10:10am  -   -   -  11 13 mph 1017.8mb 68f
10:00am  -   -   -  11 16 mph 1017.8mb 68f
9:50am 5ft 6s 6s 13 16 mph 1017.7mb 68f
9:40am 5ft  -  6s 13 16 mph 1017.8mb 68f
9:30am  -   -   -  13 16 mph 1017.8mb 68f
9:20am  -   -   -  13 16 mph 1017.7mb 68f
9:10am  -   -   -  11 16 mph 1017.5mb 68f
9:00am  -   -   -  11 13 mph 1017.4mb 68f
8:50am 5ft 6s 6s 11 13 mph 1017.2mb 68f
8:40am 5ft  -  6s 11 13 mph 1017mb 68f
8:30am  -   -   -  11 13 mph 1016.7mb 68f
8:20am  -   -   -  11 13 mph 1016.7mb 67f
8:10am  -   -   -  11 13 mph 1016.5mb 67f
8:00am  -   -   -  9 11 mph 1016.4mb -
7:50am 5ft 6s 6s 9 11 mph 1016.2mb 68f
7:40am 5ft  -  6s 9 13 mph 1015.9mb 68f
7:30am  -   -   -  11 13 mph 1016mb 68f
7:20am  -   -   -  9 13 mph 1016.1mb 68f
7:10am  -   -   -  9 11 mph 1016.2mb 68f
7:00am  -   -   -  9 11 mph 1016.3mb 68f
6:50am 5ft 7s 6s 9 11 mph 1016.1mb 68f
6:40am 5ft  -  6s 9 11 mph 1016.1mb 68f
6:30am  -   -   -  9 9 mph 1015.9mb 68f
6:20am  -   -   -  7 9 mph 1015.8mb 68f
6:10am  -   -   -  7 9 mph 1015.7mb -
6:00am  -   -   -  7 11 mph 1015.5mb -
5:50am 5ft 7s 6s 9 11 mph 1015.5mb -
5:40am 5ft  -  6s 9 11 mph 1015.4mb 68f
5:30am  -   -   -  9 11 mph 1015.3mb 68f
5:20am  -   -   -  9 11 mph 1015.4mb 68f
5:10am  -   -   -  7 9 mph 1015.4mb 68f
5:00am  -   -   -  7 11 mph 1015.3mb 68f
4:50am 5.5ft 7s 6s 7 9 mph 1015.2mb 68f
4:40am  -   -   -  7 11 mph 1015.1mb 68f
4:30am  -   -   -  9 11 mph 1014.9mb 68f
4:20am  -   -   -  11 13 mph 1014.8mb 68f
4:10am  -   -   -  13 16 mph 1014.8mb 68f
4:00am  -   -   -  13 18 mph 1014.7mb 68f
3:50am 6ft 6s 6s 16 18 mph 1014.6mb 68f
3:40am 6ft  -  6s 16 18 mph 1014.6mb 68f
3:30am  -   -   -  16 20 mph 1014.7mb 68f
3:20am  -   -   -  16 20 mph 1014.9mb 68f
3:10am  -   -   -  18 22 mph 1014.7mb 68f
3:00am  -   -   -  18 22 mph 1014.6mb 68f
2:50am 6ft 8s 6s 20 22 mph 1014.4mb 68f
2:40am 6ft  -  6s 18 25 mph 1014.8mb 68f
2:30am  -   -   -  18 22 mph 1014.7mb 68f
2:20am  -   -   -  20 25 mph 1014.5mb 68f
2:10am  -   -   -  20 25 mph 1014.4mb 68f
2:00am  -   -   -  20 25 mph 1014.5mb 68f
1:50am 7ft 7s 6s 22 25 mph 1014.6mb 68f
1:40am 7ft  -  6s 22 27 mph 1014.5mb -
1:30am  -   -   -  20 25 mph 1014.6mb 68f
1:20am  -   -   -  20 25 mph 1014.2mb 68f
1:10am  -   -   -  20 25 mph 1014.1mb 68f
1:00am  -   -   -  22 27 mph 1014.2mb 68f
12:50am 7ft 7s 6s 22 27 mph 1014mb 68f
12:40am 7ft  -  6s 20 27 mph 1014.1mb 68f
12:30am  -   -   -  20 29 mph 1014mb 68f
12:20am  -   -   -  22 27 mph 1014.1mb 68f
12:10am  -   -   -  22 29 mph 1014mb 68f
12:00am  -   -   -  22 29 mph 1013.8mb 68f
Fri 10/20 11:50pm 8ft 7s 6s 22 27 mph 1013.9mb 68f
11:40pm 8ft  -  6s 22 27 mph 1013.9mb 68f
11:30pm  -   -   -  22 29 mph 1013.7mb 68f
11:20pm  -   -   -  22 29 mph 1013.8mb 68f
11:10pm  -   -   -  22 27 mph 1013.7mb 68f
11:00pm  -   -   -  22 29 mph 1013.7mb 68f
10:50pm 8ft 7s 6s 25 29 mph 1013.5mb 68f
10:40pm 8ft  -  6s 25 31 mph 1013.6mb 68f
10:30pm  -   -   -  25 29 mph 1013.6mb 68f
10:20pm  -   -   -  25 29 mph 1013.5mb 68f
10:10pm  -   -   -  27 34 mph 1013.4mb 68f
10:00pm  -   -   -  27 31 mph 1013.2mb 68f
9:50pm 9ft 6s 6s 27 34 mph 1013.3mb 68f
9:40pm  -   -   -  27 36 mph 1013.1mb 68f
9:30pm  -   -   -  27 36 mph 1013mb 68f
9:20pm  -   -   -  27 34 mph 1012.9mb 68f
9:10pm  -   -   -  29 36 mph 1012.8mb 68f
9:00pm  -   -   -  29 36 mph 1012.6mb 68f
8:50pm 9ft 7s 6s 29 36 mph 1012.6mb 68f
8:40pm 9ft  -  6s 29 36 mph 1012.3mb 68f
8:30pm  -   -   -  29 38 mph 1012.3mb 68f
8:20pm  -   -   -  29 38 mph 1012.3mb -
8:10pm  -   -   -  29 36 mph 1012.3mb 69f
8:00pm  -   -   -  31 38 mph 1012.2mb 69f
7:50pm 9ft 7s 6s 29 38 mph 1012.1mb 69f
7:40pm 9ft  -  6s 29 34 mph 1012.2mb 69f
7:30pm  -   -   -  27 34 mph 1012.1mb 69f
7:20pm  -   -   -  25 34 mph 1012.2mb 69f
7:10pm  -   -   -  22 29 mph 1012.1mb 69f
7:00pm  -   -   -  25 31 mph 1012mb 69f
6:50pm 8ft 7s 6s 27 34 mph 1011.8mb 69f
6:40pm  -   -   -  27 34 mph 1011.6mb 69f
6:30pm  -   -   -  27 36 mph 1011.5mb 69f
6:20pm  -   -   -  29 36 mph 1011.4mb 69f
6:10pm  -   -   -  29 34 mph 1011.3mb 69f
6:00pm  -   -   -  29 36 mph 1011mb -
5:50pm 8ft  -  6s 27 34 mph 1011.2mb 69f
5:40pm 8ft 7s 6s  -  mph - -
5:30pm  -   -   -  20 29 mph 1011.6mb 69f
5:20pm  -   -   -  20 25 mph 1011.6mb 69f
5:10pm  -   -   -  20 25 mph 1011.5mb 69f
5:00pm  -   -   -  20 25 mph 1011.5mb 69f
4:50pm 7ft 7s 6s 20 27 mph 1011.7mb 69f
4:40pm  -   -   -  22 27 mph 1011.7mb 69f
4:30pm  -   -   -  22 27 mph 1011.6mb 69f
4:20pm  -   -   -  20 27 mph 1011.8mb 69f
4:10pm  -   -   -  22 27 mph 1011.8mb 69f
4:00pm  -   -   -  20 27 mph 1011.8mb 69f
3:50pm 7ft 7s 6s 20 25 mph 1011.8mb 69f
3:40pm  -   -   -  22 27 mph 1011.6mb 69f
3:30pm  -   -   -  22 27 mph 1011.7mb -
3:20pm  -   -   -  20 27 mph 1011.5mb 69f
3:10pm  -   -   -  20 25 mph 1011.6mb 69f
3:00pm  -   -   -  18 22 mph 1011.7mb 69f
2:50pm 7ft 7s 6s 20 27 mph 1011.7mb 69f
2:40pm  -   -   -  22 27 mph 1011.9mb -
2:30pm  -   -   -  22 29 mph 1012.1mb 69f
2:20pm  -   -   -  22 27 mph 1012.2mb 69f
2:10pm  -   -   -  22 27 mph 1012.3mb 69f
2:00pm  -   -   -  22 29 mph 1012.4mb 69f
1:50pm 6.5ft 7s 5s 25 29 mph 1012.5mb 69f
1:40pm 6.5ft  -  5s 25 31 mph 1012.6mb 69f
1:30pm  -   -   -  25 29 mph 1012.7mb -
1:20pm  -   -   -  22 27 mph 1012.9mb 69f
1:10pm  -   -   -  22 27 mph 1013.1mb 69f
1:00pm  -   -   -  22 27 mph 1013mb 69f
12:50pm 6ft 6s 5s 22 27 mph 1013.2mb 69f
12:40pm 6ft  -  5s 22 27 mph 1013.4mb 69f
12:30pm  -   -   -  22 27 mph 1013.3mb 69f
12:20pm  -   -   -  22 27 mph 1013mb 69f
12:10pm  -   -   -  22 29 mph 1013.3mb 69f
12:00pm  -   -   -  25 29 mph 1013.5mb 69f
11:50am 7ft 6s 5s 25 29 mph 1013.3mb 69f
11:40am 7ft  -  5s 25 29 mph 1013.6mb 69f
11:30am  -   -   -  25 31 mph 1013.7mb 69f
11:20am  -   -   -  27 34 mph 1013.6mb 69f
11:10am  -   -   -  25 31 mph 1013.4mb 69f
11:00am  -   -   -  25 34 mph 1013.5mb 69f
10:50am 5ft 6s 5s 22 31 mph 1013.4mb 69f
10:40am 5ft  -  5s 20 27 mph 1013.5mb 69f
10:30am  -   -   -  22 27 mph 1013.6mb 69f
10:20am  -   -   -  22 29 mph 1013.5mb 69f
10:10am  -   -   -  22 27 mph 1013.5mb 69f
10:00am  -   -   -  20 27 mph 1013.5mb -
9:50am 6.5ft 6s 5s 22 27 mph 1013.6mb 69f
9:40am  -   -   -  22 29 mph 1013.5mb 69f
9:30am  -   -   -  22 29 mph 1013.6mb 69f
9:20am  -   -   -  22 27 mph 1013.6mb 69f
9:10am  -   -   -  22 29 mph 1013.7mb 69f
9:00am  -   -   -  22 27 mph 1013.8mb 69f
8:50am 7ft 6s 5s 22 27 mph 1013.7mb 69f
7:50am 7ft 6s 5s 25 34 mph 1013.1mb 69f
7:20am  -   -   -  25 31 mph 1013mb 69f
7:10am  -   -   -  27 34 mph 1012.9mb 69f
7:00am  -   -   -  27 34 mph 1013mb 69f
6:50am 6.5ft 6s 5s 27 36 mph 1012.9mb 69f
6:40am  -   -   -  27 34 mph 1012.9mb 69f
6:30am  -   -   -  27 34 mph 1013.1mb 69f
6:20am  -   -   -  27 34 mph 1013mb 69f
6:10am  -   -   -  25 31 mph 1013.1mb 69f
6:00am  -   -   -  25 31 mph 1013mb -